createdAt,value
2023-01-09T00:04:18.635Z,6.64
2023-01-09T00:09:11.228Z,6.75
2023-01-09T00:14:03.745Z,6.85
2023-01-09T00:18:56.539Z,6.84
2023-01-09T00:23:48.266Z,6.89
2023-01-09T00:28:40.922Z,6.88
2023-01-09T00:33:36.775Z,6.77
2023-01-09T00:38:28.726Z,6.91
2023-01-09T00:43:23.044Z,7.09
2023-01-09T00:48:26.369Z,7.03
2023-01-09T00:53:23.250Z,7.02
2023-01-09T00:58:15.314Z,7.01
2023-01-09T01:03:07.118Z,7.04
2023-01-09T01:07:58.899Z,7.01
2023-01-09T01:12:51.705Z,7.02
2023-01-09T01:17:43.774Z,7.01
2023-01-09T01:22:35.543Z,7.17
2023-01-09T01:27:28.886Z,7.36
2023-01-09T01:32:20.783Z,7.47
2023-01-09T01:37:12.483Z,7.55
2023-01-09T01:42:05.450Z,7.62
2023-01-09T01:46:58.344Z,7.62
2023-01-09T01:51:53.975Z,7.58
2023-01-09T01:56:53.644Z,7.53
2023-01-09T02:01:52.017Z,7.61
2023-01-09T02:06:48.386Z,7.53
2023-01-09T02:11:49.203Z,7.50
2023-01-09T02:17:12.411Z,7.50
2023-01-09T02:22:47.961Z,7.53
2023-01-09T02:28:05.051Z,7.55
2023-01-09T02:33:30.211Z,7.60
2023-01-09T02:38:35.588Z,7.48
2023-01-09T02:43:27.861Z,7.45
2023-01-09T02:48:19.695Z,7.48
2023-01-09T02:53:53.469Z,7.39
2023-01-09T02:59:17.653Z,7.29
2023-01-09T03:04:27.364Z,7.32
2023-01-09T03:09:27.428Z,7.22
2023-01-09T03:14:25.741Z,7.22
2023-01-09T03:19:23.975Z,7.24
2023-01-09T03:24:15.880Z,7.14
2023-01-09T03:29:07.578Z,7.13
2023-01-09T03:33:59.273Z,6.85
2023-01-09T03:38:51.454Z,6.74
2023-01-09T03:43:43.193Z,6.73
2023-01-09T03:48:35.304Z,6.71
2023-01-09T03:53:28.598Z,6.73
2023-01-09T03:58:21.920Z,6.68
2023-01-09T04:03:13.582Z,6.75
2023-01-09T04:08:06.132Z,6.69
2023-01-09T04:12:57.869Z,6.65
2023-01-09T04:17:49.826Z,6.54
2023-01-09T04:22:41.709Z,6.49
2023-01-09T04:27:33.586Z,6.44
2023-01-09T04:32:27.473Z,6.42
2023-01-09T04:37:19.388Z,6.38
2023-01-09T04:42:11.912Z,6.41
2023-01-09T04:47:04.110Z,6.38
2023-01-09T04:51:55.811Z,6.37
2023-01-09T04:56:47.730Z,6.32
2023-01-09T07:19:39.429Z,5.58
2023-01-09T07:34:47.380Z,5.62
2023-01-09T07:55:09.895Z,5.96
2023-01-09T08:51:51.377Z,6.52
2023-01-09T08:56:43.334Z,6.60
2023-01-09T09:06:43.699Z,6.72
2023-01-09T09:11:44.005Z,6.79
2023-01-09T09:21:45.585Z,6.99
2023-01-09T09:26:40.362Z,6.97
2023-01-09T09:31:34.731Z,6.97
2023-01-09T09:36:34.457Z,6.98
2023-01-09T09:47:59.306Z,7.18
2023-01-09T12:52:38.771Z,7.78
2023-01-09T14:09:31.782Z,7.40
2023-01-09T14:46:33.142Z,7.34
2023-01-09T16:57:15.431Z,4.54
2023-01-09T19:52:42.591Z,4.80
2023-01-09T20:48:53.457Z,4.65
2023-01-09T21:45:08.955Z,4.34
2023-01-09T21:50:02.884Z,4.38
2023-01-09T22:00:01.392Z,4.49
2023-01-09T22:05:00.848Z,4.59
2023-01-09T22:14:59.467Z,4.67
2023-01-09T22:25:00.425Z,4.66
2023-01-09T22:29:56.541Z,4.66
2023-01-09T22:55:22.768Z,4.69
2023-01-09T23:00:19.477Z,4.70
2023-01-09T23:10:17.709Z,4.76
2023-01-09T23:15:12.912Z,4.83
2023-01-09T23:20:06.823Z,4.84
2023-01-09T23:25:00.721Z,4.78
2023-01-09T23:45:12.067Z,4.57
2023-01-09T23:50:05.133Z,4.58
